Time;durP1;ratioP1;P1;durP2;ratioP2;P2;SDS_P1;SDS_P2;PMS_P1;PMS_P2;Temp;Humidity;BMP_temperature;BMP_pressure;BME280_temperature;BME280_humidity;BME280_pressure;Samples;Min_cycle;Max_cycle;Signal;HPM_P1;HPM_P2
2021/10/24 00:02:12;;;;;;;7.72;3.13;;;0.30;99.90;;;;;;4978429;28;20031;-66
2021/10/24 00:04:39;;;;;;;10.63;3.70;;;0.30;99.90;;;;;;4978713;28;20372;-66
2021/10/24 00:07:07;;;;;;;15.50;4.80;;;0.30;99.90;;;;;;4978864;28;20019;-66
2021/10/24 00:09:34;;;;;;;7.75;3.67;;;0.30;99.90;;;;;;4978592;28;20026;-66
2021/10/24 00:12:03;;;;;;;8.65;3.45;;;0.30;99.90;;;;;;4978703;28;20023;-66
2021/10/24 00:14:31;;;;;;;7.03;3.30;;;0.30;99.90;;;;;;4962254;28;20030;-66
2021/10/24 00:16:58;;;;;;;11.13;4.68;;;0.30;99.90;;;;;;4961595;28;20026;-66
2021/10/24 00:19:25;;;;;;;13.90;3.80;;;0.30;99.90;;;;;;4979068;28;20105;-66
2021/10/24 00:21:52;;;;;;;10.63;3.40;;;0.30;99.90;;;;;;4979141;28;20035;-66
2021/10/24 00:24:20;;;;;;;12.85;3.75;;;0.20;99.90;;;;;;4979065;28;20446;-66
2021/10/24 00:26:47;;;;;;;11.70;3.47;;;0.20;99.90;;;;;;4961319;28;20026;-66
2021/10/24 00:29:15;;;;;;;13.63;3.72;;;0.20;99.90;;;;;;4978414;28;20105;-66
2021/10/24 00:31:42;;;;;;;10.73;3.88;;;0.20;99.90;;;;;;4978875;28;20050;-66
2021/10/24 00:34:09;;;;;;;12.10;3.75;;;0.20;99.90;;;;;;4978989;28;20027;-66
2021/10/24 00:36:37;;;;;;;8.55;4.13;;;0.20;99.90;;;;;;4978079;28;20037;-66
2021/10/24 00:39:05;;;;;;;11.45;3.95;;;0.10;99.90;;;;;;4977725;28;20038;-66
2021/10/24 00:41:33;;;;;;;7.78;3.10;;;0.10;99.90;;;;;;4979034;28;20074;-66
2021/10/24 00:44:25;;;;;;;11.93;3.75;;;0.10;99.90;;;;;;4978402;28;20037;-66
2021/10/24 00:46:53;;;;;;;13.25;4.38;;;0.10;99.90;;;;;;4978609;28;20037;-66
2021/10/24 00:49:22;;;;;;;9.60;3.58;;;0.10;99.90;;;;;;4978503;28;20026;-66
2021/10/24 00:51:51;;;;;;;11.63;3.58;;;0.10;99.90;;;;;;4978673;28;20416;-66
2021/10/24 00:54:29;;;;;;;9.95;4.22;;;0.10;99.90;;;;;;4978201;28;20327;-66
2021/10/24 00:56:57;;;;;;;8.85;3.92;;;0.10;99.90;;;;;;4978779;28;20037;-66
2021/10/24 00:59:25;;;;;;;12.95;3.95;;;0.10;99.90;;;;;;4978196;28;20330;-66
2021/10/24 01:01:53;;;;;;;11.07;3.85;;;0.10;99.90;;;;;;4979329;28;20373;-66
2021/10/24 01:04:20;;;;;;;8.10;3.25;;;0.10;99.90;;;;;;4978710;28;20027;-66
2021/10/24 01:06:51;;;;;;;9.68;3.67;;;0.00;99.90;;;;;;4978198;28;20030;-66
2021/10/24 01:09:21;;;;;;;8.82;3.42;;;0.00;99.90;;;;;;4978039;28;20077;-66
2021/10/24 01:11:50;;;;;;;9.48;3.42;;;0.10;99.90;;;;;;4978326;28;20023;-66
2021/10/24 01:14:18;;;;;;;6.90;3.20;;;0.00;99.90;;;;;;4979925;28;20025;-66
2021/10/24 01:16:45;;;;;;;8.00;3.72;;;0.00;99.90;;;;;;4981958;28;20023;-66
2021/10/24 01:19:13;;;;;;;8.50;2.92;;;0.00;99.90;;;;;;4981640;28;20023;-66
2021/10/24 01:21:41;;;;;;;6.95;3.30;;;0.00;99.90;;;;;;4981660;28;20026;-66
2021/10/24 01:24:08;;;;;;;12.43;3.65;;;0.00;99.90;;;;;;4981586;28;20019;-66
2021/10/24 01:26:38;;;;;;;7.45;3.70;;;-0.10;99.90;;;;;;4982039;28;20022;-66
2021/10/24 01:29:07;;;;;;;13.20;3.95;;;-0.10;99.90;;;;;;4981421;28;20114;-66
2021/10/24 01:31:35;;;;;;;13.18;3.35;;;-0.10;99.90;;;;;;4981373;28;20319;-66
2021/10/24 01:34:04;;;;;;;10.23;3.75;;;0.00;99.90;;;;;;4964152;28;20105;-66
2021/10/24 01:36:32;;;;;;;12.48;4.10;;;0.00;99.90;;;;;;4981119;28;20023;-66
2021/10/24 01:38:59;;;;;;;11.32;3.25;;;0.00;99.90;;;;;;4981328;28;20034;-66
2021/10/24 01:41:30;;;;;;;14.98;3.95;;;0.00;99.90;;;;;;4981240;28;20023;-66
2021/10/24 01:43:57;;;;;;;9.85;3.80;;;0.00;99.90;;;;;;4981272;28;20027;-66
2021/10/24 01:46:25;;;;;;;11.02;3.95;;;0.00;99.90;;;;;;4981339;28;20030;-66
2021/10/24 01:48:52;;;;;;;12.13;4.00;;;0.00;99.90;;;;;;4981261;28;20438;-66
2021/10/24 01:51:21;;;;;;;12.18;4.35;;;0.10;99.90;;;;;;4981604;28;20023;-66
2021/10/24 01:53:49;;;;;;;12.07;3.53;;;0.10;99.90;;;;;;4981089;28;20077;-66
2021/10/24 01:56:17;;;;;;;9.68;3.38;;;0.10;99.90;;;;;;4980875;28;20110;-65
2021/10/24 01:58:44;;;;;;;10.68;3.85;;;0.10;99.90;;;;;;4964014;28;20035;-66
2021/10/24 02:01:13;;;;;;;9.65;4.53;;;0.10;99.90;;;;;;4981288;28;20034;-66
2021/10/24 02:03:40;;;;;;;12.60;3.97;;;0.10;99.90;;;;;;4963828;28;20033;-66
2021/10/24 02:06:07;;;;;;;14.88;4.35;;;0.10;99.90;;;;;;4980015;28;20022;-66
2021/10/24 02:08:34;;;;;;;14.52;4.45;;;0.10;99.90;;;;;;4981420;28;20018;-66
2021/10/24 02:11:02;;;;;;;12.20;3.45;;;0.10;99.90;;;;;;4980774;28;20446;-66
2021/10/24 02:13:29;;;;;;;10.27;4.20;;;0.10;99.90;;;;;;4981226;28;20023;-66
2021/10/24 02:15:57;;;;;;;12.35;4.35;;;0.10;99.90;;;;;;4980925;28;20146;-66
2021/10/24 02:18:24;;;;;;;14.68;5.40;;;0.10;99.90;;;;;;4981280;28;20326;-66
2021/10/24 02:20:51;;;;;;;17.63;4.57;;;0.20;99.90;;;;;;4980621;28;20097;-66
2021/10/24 02:23:19;;;;;;;17.77;4.72;;;0.20;99.90;;;;;;4981110;28;20030;-66
2021/10/24 02:25:46;;;;;;;10.73;3.95;;;0.20;99.90;;;;;;4980140;28;20030;-66
2021/10/24 02:28:14;;;;;;;21.02;5.68;;;0.20;99.90;;;;;;4980508;28;20082;-66
2021/10/24 02:30:42;;;;;;;11.00;4.32;;;0.20;99.90;;;;;;4980322;28;20029;-66
2021/10/24 02:33:10;;;;;;;11.73;3.85;;;0.20;99.90;;;;;;4980909;28;20030;-66
2021/10/24 02:35:37;;;;;;;9.68;3.38;;;0.20;99.90;;;;;;4980870;28;20023;-66
2021/10/24 02:38:05;;;;;;;11.57;3.25;;;0.10;99.90;;;;;;4979902;28;20058;-66
2021/10/24 02:40:32;;;;;;;11.27;3.97;;;0.10;99.90;;;;;;4980709;28;20027;-66
2021/10/24 02:43:00;;;;;;;11.10;3.75;;;0.10;99.90;;;;;;4980206;28;20030;-66
2021/10/24 02:45:28;;;;;;;16.33;5.25;;;0.10;99.90;;;;;;4980609;28;20027;-66
2021/10/24 02:47:56;;;;;;;20.10;4.13;;;0.10;99.90;;;;;;4979638;28;20065;-66
2021/10/24 02:50:24;;;;;;;14.00;4.55;;;0.10;99.90;;;;;;4979668;28;20383;-66
2021/10/24 02:52:51;;;;;;;13.20;4.28;;;0.10;99.90;;;;;;4980131;28;20030;-66
2021/10/24 02:55:18;;;;;;;12.07;4.13;;;0.10;99.90;;;;;;4980401;28;20022;-66
2021/10/24 02:57:46;;;;;;;8.95;3.78;;;0.10;99.90;;;;;;4979942;28;20026;-66
2021/10/24 03:00:14;;;;;;;9.70;3.97;;;0.10;99.90;;;;;;4962562;28;20023;-66
2021/10/24 03:02:44;;;;;;;14.77;4.43;;;0.10;99.90;;;;;;4979892;28;20029;-66
2021/10/24 03:05:12;;;;;;;11.40;4.03;;;0.10;99.90;;;;;;4980225;28;20022;-66
2021/10/24 03:07:39;;;;;;;11.60;4.78;;;0.10;99.90;;;;;;4979687;28;20030;-66
2021/10/24 03:10:08;;;;;;;19.25;4.60;;;0.10;99.90;;;;;;4979649;28;20423;-66
2021/10/24 03:12:36;;;;;;;12.68;4.63;;;0.10;99.90;;;;;;4979830;28;20454;-66
2021/10/24 03:15:04;;;;;;;13.30;4.25;;;0.10;99.90;;;;;;4980041;28;20026;-66
2021/10/24 03:17:32;;;;;;;11.85;4.50;;;0.20;99.90;;;;;;4979528;28;20018;-66
2021/10/24 03:19:59;;;;;;;9.23;4.50;;;0.10;99.90;;;;;;4979782;28;20023;-66
2021/10/24 03:22:27;;;;;;;9.95;4.93;;;0.10;99.90;;;;;;4979824;28;20027;-66
2021/10/24 03:24:58;;;;;;;9.88;4.40;;;0.10;99.90;;;;;;4979861;28;20019;-66
2021/10/24 03:27:25;;;;;;;11.32;3.90;;;0.10;99.90;;;;;;4979348;28;20078;-66
2021/10/24 03:29:53;;;;;;;16.35;6.40;;;0.10;99.90;;;;;;4979196;28;20077;-66
2021/10/24 03:32:21;;;;;;;8.38;3.80;;;0.10;99.90;;;;;;4979249;28;20023;-66
2021/10/24 03:34:49;;;;;;;22.50;5.38;;;0.10;99.90;;;;;;4979561;28;20019;-66
2021/10/24 03:37:16;;;;;;;12.40;4.53;;;0.10;99.90;;;;;;4978813;28;20439;-66
2021/10/24 03:39:45;;;;;;;8.52;4.30;;;0.10;99.90;;;;;;4979623;28;20411;-66
2021/10/24 03:42:12;;;;;;;15.10;5.05;;;0.10;99.90;;;;;;4962026;28;20035;-66
2021/10/24 03:44:40;;;;;;;6.15;3.65;;;0.10;99.90;;;;;;4979042;28;20034;-66
2021/10/24 03:47:07;;;;;;;13.57;4.70;;;0.00;99.90;;;;;;4961789;28;20029;-66
2021/10/24 03:49:36;;;;;;;11.68;4.13;;;0.00;99.90;;;;;;4979393;28;20073;-65
2021/10/24 03:52:04;;;;;;;8.93;4.03;;;0.00;99.90;;;;;;4978866;28;20033;-66
2021/10/24 03:54:31;;;;;;;8.75;3.95;;;0.10;99.90;;;;;;4979458;28;20037;-66
2021/10/24 03:56:58;;;;;;;8.65;3.60;;;0.10;99.90;;;;;;4961741;28;20025;-66
2021/10/24 03:59:25;;;;;;;7.30;4.22;;;0.00;99.90;;;;;;4979583;28;20359;-66
2021/10/24 04:01:53;;;;;;;14.23;4.72;;;0.00;99.90;;;;;;4979253;28;20018;-66
2021/10/24 04:04:21;;;;;;;14.15;4.60;;;0.10;99.90;;;;;;4978801;28;20023;-66
2021/10/24 04:06:49;;;;;;;14.38;4.90;;;0.10;99.90;;;;;;4978895;28;20034;-66
2021/10/24 04:09:16;;;;;;;13.45;5.07;;;0.10;99.90;;;;;;4978640;28;20438;-66
2021/10/24 04:11:44;;;;;;;14.82;4.53;;;0.10;99.90;;;;;;4979230;28;20105;-66
2021/10/24 04:14:12;;;;;;;16.33;6.05;;;0.10;99.90;;;;;;4978684;28;20031;-66
2021/10/24 04:16:39;;;;;;;21.35;7.90;;;0.10;99.90;;;;;;4977917;28;20435;-66
2021/10/24 04:19:07;;;;;;;24.13;6.07;;;0.10;99.90;;;;;;4979088;28;20034;-66
2021/10/24 04:21:34;;;;;;;16.35;5.03;;;0.10;99.90;;;;;;4978630;28;20106;-66
2021/10/24 04:24:01;;;;;;;12.98;5.72;;;0.10;99.90;;;;;;4978869;28;20030;-66
2021/10/24 04:26:32;;;;;;;19.75;7.70;;;0.10;99.90;;;;;;4979040;28;20030;-66
2021/10/24 04:29:00;;;;;;;20.40;7.25;;;0.10;99.90;;;;;;4978509;28;20323;-66
2021/10/24 04:31:28;;;;;;;14.43;6.20;;;0.10;99.90;;;;;;4978811;28;20027;-66
2021/10/24 04:33:56;;;;;;;19.13;6.07;;;0.20;99.90;;;;;;4961355;28;20027;-66
2021/10/24 04:36:24;;;;;;;17.25;6.32;;;0.20;99.90;;;;;;4978423;28;20019;-66
2021/10/24 04:38:51;;;;;;;18.42;6.78;;;0.20;99.90;;;;;;4974414;28;20047;-66
2021/10/24 04:41:19;;;;;;;14.68;6.05;;;0.20;99.90;;;;;;4978356;28;20119;-66
2021/10/24 04:43:46;;;;;;;18.55;6.43;;;0.20;99.90;;;;;;4978976;28;20359;-66
2021/10/24 04:46:14;;;;;;;17.38;6.22;;;0.20;99.90;;;;;;4978810;28;20034;-66
2021/10/24 04:48:41;;;;;;;18.48;6.50;;;0.20;99.90;;;;;;4979387;28;20027;-65
2021/10/24 04:51:08;;;;;;;16.10;6.45;;;0.20;99.90;;;;;;4982404;28;20030;-65
2021/10/24 04:53:36;;;;;;;15.40;7.05;;;0.20;99.90;;;;;;4982240;28;20074;-66
2021/10/24 04:56:03;;;;;;;18.63;7.07;;;0.20;99.90;;;;;;4964901;28;20438;-66
2021/10/24 04:58:31;;;;;;;19.35;6.93;;;0.20;99.90;;;;;;4982599;28;20384;-65
2021/10/24 05:00:59;;;;;;;16.20;7.43;;;0.20;99.90;;;;;;4981376;28;20034;-66
2021/10/24 05:03:26;;;;;;;18.10;7.95;;;0.30;99.90;;;;;;4981995;28;20323;-65
2021/10/24 05:05:53;;;;;;;22.08;6.78;;;0.30;99.90;;;;;;4981989;28;20500;-66
2021/10/24 05:08:21;;;;;;;22.38;7.00;;;0.30;99.90;;;;;;4981697;28;20344;-66
2021/10/24 05:10:48;;;;;;;13.48;6.38;;;0.30;99.90;;;;;;4981874;28;20022;-66
2021/10/24 05:13:16;;;;;;;25.20;8.80;;;0.30;99.90;;;;;;4981770;28;20045;-66
2021/10/24 05:15:44;;;;;;;17.77;8.50;;;0.40;99.90;;;;;;4982173;28;20015;-66
2021/10/24 05:18:11;;;;;;;20.67;7.57;;;0.40;99.90;;;;;;4981776;28;20376;-66
2021/10/24 05:20:38;;;;;;;17.85;6.95;;;0.40;99.90;;;;;;4982370;28;20038;-66
2021/10/24 05:23:05;;;;;;;17.17;7.68;;;0.40;99.90;;;;;;4964616;28;20423;-66
2021/10/24 05:25:36;;;;;;;12.95;6.57;;;0.40;99.90;;;;;;4964471;28;20031;-66
2021/10/24 05:28:03;;;;;;;20.27;7.05;;;0.30;99.90;;;;;;4964561;28;20026;-66
2021/10/24 05:30:31;;;;;;;18.95;6.82;;;0.30;99.90;;;;;;4964805;28;20027;-66
2021/10/24 05:32:58;;;;;;;16.95;6.43;;;0.20;99.90;;;;;;4981526;28;20015;-66
2021/10/24 05:35:25;;;;;;;15.52;6.38;;;0.10;99.90;;;;;;4964861;28;20038;-66
2021/10/24 05:37:53;;;;;;;16.48;6.65;;;0.10;99.90;;;;;;4981203;28;20110;-66
2021/10/24 05:40:21;;;;;;;15.80;6.32;;;0.00;99.90;;;;;;4981780;28;20027;-66
2021/10/24 05:42:49;;;;;;;19.83;6.30;;;0.00;99.90;;;;;;4981448;28;20105;-66
2021/10/24 05:45:17;;;;;;;17.40;6.50;;;0.00;99.90;;;;;;4980991;28;20019;-66
2021/10/24 05:47:44;;;;;;;10.82;5.38;;;0.00;99.90;;;;;;4981191;28;20031;-66
2021/10/24 05:50:11;;;;;;;10.48;5.25;;;-0.10;99.90;;;;;;4981112;28;20033;-66
2021/10/24 05:52:39;;;;;;;11.60;5.55;;;-0.10;99.90;;;;;;4981833;28;20029;-66
2021/10/24 05:55:07;;;;;;;14.38;5.60;;;-0.10;99.90;;;;;;4981090;28;20419;-66
2021/10/24 05:57:34;;;;;;;15.18;6.32;;;-0.20;99.90;;;;;;4964692;28;20030;-66
2021/10/24 06:00:02;;;;;;;14.07;5.85;;;-0.20;99.90;;;;;;4980314;28;20022;-66
2021/10/24 06:02:30;;;;;;;18.85;5.93;;;-0.20;99.90;;;;;;4981219;28;20027;-66
2021/10/24 06:04:58;;;;;;;14.95;6.40;;;-0.20;99.90;;;;;;4981449;28;20084;-66
2021/10/24 06:07:26;;;;;;;18.63;6.13;;;-0.20;99.90;;;;;;4980761;28;20031;-66
2021/10/24 06:09:59;;;;;;;14.63;6.35;;;-0.20;99.90;;;;;;4980634;28;20026;-65
2021/10/24 06:15:10;;;;;;;16.17;6.93;;;-0.20;99.90;;;;;;4980748;28;20323;-70
2021/10/24 06:17:37;;;;;;;;;;;-0.20;99.90;;;;;;4981715;28;20026;-71
2021/10/24 06:20:10;;;;;;;13.27;5.88;;;-0.20;99.90;;;;;;4980910;28;19906;-71
2021/10/24 06:22:38;;;;;;;14.95;6.45;;;-0.20;99.90;;;;;;4980609;28;20027;-71
2021/10/24 06:25:08;;;;;;;17.10;6.93;;;-0.20;99.90;;;;;;4980509;28;20053;-71
2021/10/24 06:27:42;;;;;;;15.70;7.05;;;-0.20;99.90;;;;;;4980198;28;20105;-71
2021/10/24 06:30:12;;;;;;;18.48;6.60;;;-0.20;99.90;;;;;;4980251;28;20034;-71
2021/10/24 06:32:42;;;;;;;14.80;6.25;;;-0.20;99.90;;;;;;4980821;28;20027;-71
2021/10/24 06:35:11;;;;;;;21.75;5.70;;;-0.20;99.90;;;;;;4980411;28;20050;-71
2021/10/24 06:37:44;;;;;;;13.70;6.47;;;-0.20;99.90;;;;;;4980229;28;20054;-71
2021/10/24 06:40:14;;;;;;;17.90;5.90;;;-0.20;99.90;;;;;;4980217;28;20030;-71
2021/10/24 06:42:42;;;;;;;14.00;7.50;;;-0.20;99.90;;;;;;4980318;28;20026;-71
2021/10/24 06:45:10;;;;;;;12.90;6.72;;;-0.20;99.90;;;;;;4980150;28;20035;-70
2021/10/24 06:47:39;;;;;;;15.48;7.47;;;-0.20;99.90;;;;;;4980291;28;20023;-72
2021/10/24 06:50:09;;;;;;;19.65;7.50;;;-0.20;99.90;;;;;;4979940;28;20118;-68
2021/10/24 06:52:36;;;;;;;19.17;8.18;;;-0.10;99.90;;;;;;4980056;28;20297;-68
2021/10/24 06:55:05;;;;;;;16.52;8.40;;;-0.10;99.90;;;;;;4980225;28;20074;-68
2021/10/24 06:57:34;;;;;;;14.95;8.95;;;-0.10;99.90;;;;;;4980572;28;20019;-68
2021/10/24 07:00:07;;;;;;;14.18;8.68;;;-0.10;99.90;;;;;;4962532;28;20029;-68
2021/10/24 07:02:35;;;;;;;16.17;8.48;;;-0.10;99.90;;;;;;4963025;28;20027;-68
2021/10/24 07:05:03;;;;;;;15.35;7.43;;;0.00;99.90;;;;;;4979737;28;20034;-68
2021/10/24 07:07:31;;;;;;;16.55;8.00;;;0.00;99.90;;;;;;4980391;28;20411;-69
2021/10/24 07:09:58;;;;;;;12.05;7.32;;;0.00;99.90;;;;;;4979793;28;20031;-69
2021/10/24 07:12:26;;;;;;;15.35;7.38;;;0.00;99.90;;;;;;4979393;28;20034;-72
2021/10/24 07:14:53;;;;;;;15.70;7.47;;;0.10;99.90;;;;;;4979607;28;20019;-70
2021/10/24 07:17:21;;;;;;;16.65;8.27;;;0.10;99.90;;;;;;4979657;28;20018;-70
2021/10/24 07:19:49;;;;;;;15.45;8.35;;;0.10;99.90;;;;;;4980002;28;20031;-69
2021/10/24 07:22:17;;;;;;;14.52;8.13;;;0.20;99.90;;;;;;4980010;28;20117;-70
2021/10/24 07:24:45;;;;;;;16.27;7.32;;;0.20;99.90;;;;;;4962230;28;20038;-70
2021/10/24 07:27:12;;;;;;;16.55;7.63;;;0.20;99.90;;;;;;4979546;28;20086;-65
2021/10/24 07:29:40;;;;;;;19.42;7.50;;;0.30;99.90;;;;;;4979782;28;20403;-65
2021/10/24 07:32:07;;;;;;;15.23;8.70;;;0.30;99.90;;;;;;4979278;28;20034;-65
2021/10/24 07:34:35;;;;;;;20.27;7.93;;;0.40;99.90;;;;;;4979243;28;20023;-66
2021/10/24 07:37:03;;;;;;;16.45;8.75;;;0.50;99.90;;;;;;4962017;28;20109;-66
2021/10/24 07:39:31;;;;;;;15.75;8.43;;;0.60;99.90;;;;;;4979157;28;20054;-65
2021/10/24 07:42:02;;;;;;;15.70;7.40;;;0.60;99.90;;;;;;4962059;28;20030;-65
2021/10/24 07:44:33;;;;;;;15.05;7.25;;;0.70;99.90;;;;;;4979053;28;20027;-65
2021/10/24 07:47:00;;;;;;;17.73;8.38;;;0.70;99.90;;;;;;4979018;28;20354;-68
2021/10/24 07:49:28;;;;;;;19.00;7.88;;;0.70;99.90;;;;;;4978934;28;20030;-64
2021/10/24 07:51:59;;;;;;;16.77;8.50;;;0.80;99.90;;;;;;4979032;28;20411;-64
2021/10/24 07:54:27;;;;;;;16.02;8.65;;;0.80;99.90;;;;;;4978408;28;20019;-65
2021/10/24 07:56:54;;;;;;;22.38;10.23;;;0.90;99.90;;;;;;4979266;28;20400;-65
2021/10/24 07:59:22;;;;;;;17.92;9.65;;;0.90;99.90;;;;;;4978944;28;20339;-66
2021/10/24 08:01:49;;;;;;;17.33;8.25;;;0.90;99.90;;;;;;4979313;28;20466;-65
2021/10/24 08:04:17;;;;;;;17.73;8.02;;;1.00;99.90;;;;;;4962420;28;20041;-65
2021/10/24 08:06:44;;;;;;;16.80;7.35;;;1.00;99.90;;;;;;4978877;28;20322;-65
2021/10/24 08:09:12;;;;;;;15.02;7.82;;;1.10;99.90;;;;;;4962315;28;20030;-66
2021/10/24 08:11:40;;;;;;;16.80;7.32;;;1.20;99.90;;;;;;4978955;28;20046;-65
2021/10/24 08:14:08;;;;;;;17.27;7.57;;;1.20;99.90;;;;;;4979219;28;20023;-65
2021/10/24 08:16:41;;;;;;;19.77;8.77;;;1.30;99.90;;;;;;4978946;28;20332;-66
2021/10/24 08:19:08;;;;;;;19.77;7.28;;;1.40;99.90;;;;;;4978645;28;20466;-66
2021/10/24 08:21:36;;;;;;;18.15;7.95;;;1.50;99.90;;;;;;4979050;28;20027;-66
2021/10/24 08:24:04;;;;;;;17.13;7.32;;;1.60;99.90;;;;;;4977849;28;20126;-66
2021/10/24 08:26:32;;;;;;;15.15;7.18;;;1.70;99.90;;;;;;4961754;28;20030;-66
2021/10/24 08:29:01;;;;;;;17.98;7.43;;;1.70;99.90;;;;;;4978962;28;20113;-66
2021/10/24 08:31:31;;;;;;;16.38;7.57;;;1.80;99.90;;;;;;4978957;28;20034;-65
2021/10/24 08:34:00;;;;;;;11.80;7.03;;;1.90;99.90;;;;;;4978473;28;20153;-66
2021/10/24 08:36:28;;;;;;;16.60;7.78;;;2.00;99.90;;;;;;4978714;28;20026;-66
2021/10/24 08:39:05;;;;;;;17.10;7.28;;;2.10;99.90;;;;;;4978123;28;20054;-65
2021/10/24 08:41:33;;;;;;;18.67;7.95;;;2.10;99.90;;;;;;4978651;28;20065;-66
2021/10/24 08:44:02;;;;;;;14.57;7.95;;;2.20;99.90;;;;;;4978666;28;20027;-65
2021/10/24 08:46:30;;;;;;;13.43;7.50;;;2.30;99.90;;;;;;4978808;28;20046;-64
2021/10/24 08:48:58;;;;;;;14.52;7.00;;;2.30;99.90;;;;;;4978795;28;20363;-70
2021/10/24 08:51:30;;;;;;;16.80;8.32;;;2.40;99.90;;;;;;4978563;28;20030;-64
2021/10/24 08:53:59;;;;;;;15.05;7.90;;;2.50;99.90;;;;;;4978808;28;20344;-62
2021/10/24 08:56:29;;;;;;;14.77;8.45;;;2.60;99.90;;;;;;4978453;28;20431;-62
2021/10/24 08:58:58;;;;;;;19.70;9.25;;;2.70;99.90;;;;;;4978526;28;20330;-62
2021/10/24 09:01:26;;;;;;;19.02;9.35;;;2.80;99.90;;;;;;4978168;28;20415;-62
2021/10/24 09:04:08;;;;;;;15.07;7.95;;;2.90;99.90;;;;;;4961103;28;20037;-62
2021/10/24 09:06:58;;;;;;;21.02;8.95;;;3.00;99.90;;;;;;4978294;28;20031;-62
2021/10/24 09:09:31;;;;;;;19.98;7.90;;;3.20;99.90;;;;;;4978052;28;20030;-63
2021/10/24 09:12:00;;;;;;;16.15;6.85;;;3.30;99.90;;;;;;4978101;28;20511;-62
2021/10/24 09:14:52;;;;;;;16.70;7.30;;;3.50;99.90;;;;;;4978108;28;20472;-64
2021/10/24 09:17:31;;;;;;;15.65;5.70;;;3.60;99.90;;;;;;4978212;28;20023;-63
2021/10/24 09:20:06;;;;;;;12.07;5.88;;;3.80;99.90;;;;;;4977546;28;20035;-66
2021/10/24 09:22:40;;;;;;;14.50;5.68;;;3.90;99.90;;;;;;4977732;28;20027;-66
2021/10/24 09:25:15;;;;;;;7.97;3.10;;;4.00;99.90;;;;;;4978033;28;20027;-68
2021/10/24 09:27:53;;;;;;;10.43;2.80;;;4.20;99.90;;;;;;4978673;28;20374;-67
2021/10/24 09:30:28;;;;;;;10.55;3.67;;;4.40;99.90;;;;;;4960852;28;20026;-66
2021/10/24 09:33:02;;;;;;;11.20;3.95;;;4.60;99.90;;;;;;4977815;28;20146;-66
2021/10/24 09:35:36;;;;;;;7.65;2.60;;;4.80;99.90;;;;;;4979903;28;20110;-65
2021/10/24 09:38:07;;;;;;;7.88;2.97;;;5.00;99.90;;;;;;4981486;28;20055;-65
2021/10/24 09:40:46;;;;;;;7.43;3.00;;;5.20;99.90;;;;;;4981782;28;20094;-66
2021/10/24 09:43:24;;;;;;;10.27;2.85;;;5.30;99.90;;;;;;4982055;28;20029;-65
2021/10/24 09:45:59;;;;;;;5.05;2.38;;;5.50;99.90;;;;;;4981194;28;20427;-63
2021/10/24 09:48:29;;;;;;;13.10;2.95;;;5.70;99.90;;;;;;4981696;28;20030;-64
2021/10/24 09:51:04;;;;;;;7.22;3.13;;;5.80;99.90;;;;;;4981659;28;20015;-63
2021/10/24 09:53:35;;;;;;;9.55;3.70;;;6.00;99.90;;;;;;4981184;28;20103;-64
2021/10/24 09:56:07;;;;;;;4.93;1.85;;;6.10;99.90;;;;;;4981156;28;20437;-64
2021/10/24 09:58:37;;;;;;;14.10;4.32;;;6.30;99.90;;;;;;4963797;28;20023;-63
2021/10/24 10:01:08;;;;;;;14.25;3.10;;;6.50;99.90;;;;;;4980892;28;20034;-63
2021/10/24 10:03:37;;;;;;;9.05;3.33;;;6.50;99.90;;;;;;4980903;28;20027;-64
2021/10/24 10:06:05;;;;;;;11.20;3.35;;;6.70;99.90;;;;;;4963610;28;20495;-63
2021/10/24 10:08:33;;;;;;;8.43;3.25;;;6.80;99.90;;;;;;4980968;28;20106;-63
2021/10/24 10:11:03;;;;;;;14.43;5.38;;;6.90;99.90;;;;;;4964331;28;20015;-63
2021/10/24 10:13:34;;;;;;;6.20;2.10;;;7.00;99.90;;;;;;4981478;28;20023;-63
2021/10/24 10:16:12;;;;;;;5.82;2.38;;;7.10;99.90;;;;;;4980653;28;20018;-64
2021/10/24 10:18:57;;;;;;;6.63;2.20;;;7.20;99.90;;;;;;4981167;28;20033;-63
2021/10/24 10:21:42;;;;;;;6.82;1.83;;;7.30;99.90;;;;;;4981203;28;20051;-63
2021/10/24 10:24:31;;;;;;;8.55;1.70;;;7.40;99.90;;;;;;4980547;28;20485;-63
2021/10/24 10:26:59;;;;;;;8.40;2.08;;;7.50;99.90;;;;;;4980728;28;20030;-64
2021/10/24 10:29:52;;;;;;;5.65;1.60;;;7.60;99.90;;;;;;4980352;28;20023;-65
2021/10/24 10:32:39;;;;;;;6.60;1.58;;;7.70;99.90;;;;;;4980721;28;20029;-67
2021/10/24 10:35:13;;;;;;;7.45;2.80;;;7.80;99.90;;;;;;4963281;28;20022;-64
2021/10/24 10:37:58;;;;;;;7.45;1.30;;;8.00;99.90;;;;;;4980152;28;20324;-62
2021/10/24 10:40:41;;;;;;;6.50;1.23;;;8.10;99.90;;;;;;4980757;28;20019;-62
2021/10/24 10:43:21;;;;;;;5.20;1.33;;;8.20;99.90;;;;;;4980854;28;20046;-62
2021/10/24 10:45:53;;;;;;;4.55;1.38;;;8.30;99.90;;;;;;4979928;28;20022;-64
2021/10/24 10:48:40;;;;;;;5.18;1.70;;;8.40;99.90;;;;;;4979913;28;20110;-64
2021/10/24 10:51:25;;;;;;;5.35;2.22;;;8.50;99.90;;;;;;4980647;28;20411;-64
2021/10/24 10:54:01;;;;;;;5.43;1.60;;;8.70;99.90;;;;;;4980029;28;20054;-64
2021/10/24 10:56:31;;;;;;;6.30;1.40;;;8.70;99.90;;;;;;4980503;28;20019;-64
2021/10/24 10:59:01;;;;;;;6.07;1.58;;;8.80;99.90;;;;;;4979890;28;20026;-63
2021/10/24 11:01:39;;;;;;;5.25;1.20;;;8.80;99.90;;;;;;4979958;28;20037;-63
2021/10/24 11:04:09;;;;;;;7.88;1.48;;;8.80;99.90;;;;;;4979669;28;20027;-63
2021/10/24 11:06:37;;;;;;;5.53;1.60;;;8.90;99.90;;;;;;4980287;28;20022;-63
2021/10/24 11:09:07;;;;;;;3.75;1.40;;;9.00;99.90;;;;;;4980132;28;20026;-63
2021/10/24 11:11:47;;;;;;;6.43;1.60;;;9.00;99.90;;;;;;4979645;28;20038;-64
2021/10/24 11:14:33;;;;;;;4.53;1.35;;;9.10;99.90;;;;;;4980124;28;20078;-64
2021/10/24 11:17:01;;;;;;;4.28;1.02;;;9.20;99.90;;;;;;4980062;28;20098;-63
2021/10/24 11:19:29;;;;;;;2.50;0.93;;;9.20;99.90;;;;;;4979772;28;20504;-63
2021/10/24 11:22:05;;;;;;;6.20;1.42;;;9.30;99.90;;;;;;4979431;28;20038;-63
2021/10/24 11:24:50;;;;;;;3.80;1.27;;;9.40;99.90;;;;;;4979959;28;20359;-63
2021/10/24 11:27:33;;;;;;;5.88;1.52;;;9.50;99.90;;;;;;4980059;28;20162;-63
2021/10/24 11:30:14;;;;;;;4.85;1.35;;;9.40;99.90;;;;;;4961343;28;20023;-63
2021/10/24 11:32:44;;;;;;;4.38;1.33;;;9.50;99.90;;;;;;4962014;28;20055;-63
2021/10/24 11:35:12;;;;;;;4.78;1.42;;;9.50;99.90;;;;;;4979256;28;20427;-63
2021/10/24 11:37:42;;;;;;;8.35;1.45;;;9.50;99.90;;;;;;4979574;28;20047;-63
2021/10/24 11:40:16;;;;;;;6.28;1.83;;;9.60;99.90;;;;;;4979160;28;20101;-63
2021/10/24 11:43:08;;;;;;;4.15;1.20;;;9.50;99.90;;;;;;4979029;28;20038;-63
2021/10/24 11:45:39;;;;;;;3.78;1.10;;;9.60;99.90;;;;;;4979710;28;20343;-63
2021/10/24 11:48:27;;;;;;;6.55;2.03;;;9.70;99.90;;;;;;4979090;28;20023;-63
2021/10/24 11:51:06;;;;;;;4.72;1.60;;;9.70;99.90;;;;;;4979608;28;20027;-63
2021/10/24 11:53:39;;;;;;;7.55;1.83;;;9.80;99.90;;;;;;4979315;28;20054;-63
2021/10/24 11:56:14;;;;;;;3.47;1.48;;;9.80;99.90;;;;;;4979032;28;20047;-63
2021/10/24 12:01:15;;;;;;;4.15;1.40;;;9.90;99.90;;;;;;4979254;28;20335;-63
2021/10/24 12:03:52;;;;;;;5.82;1.85;;;9.90;99.90;;;;;;4979402;28;20034;-63
2021/10/24 12:06:54;;;;;;;5.43;1.40;;;10.00;99.90;;;;;;4979798;28;20277;-63
2021/10/24 12:09:45;;;;;;;5.05;1.67;;;10.00;99.90;;;;;;4979262;28;20078;-63
2021/10/24 12:12:14;;;;;;;10.02;1.98;;;10.10;99.90;;;;;;4979085;28;20030;-63
2021/10/24 12:14:58;;;;;;;2.15;1.15;;;10.10;99.90;;;;;;4978239;28;20022;-63
2021/10/24 12:17:30;;;;;;;4.80;1.35;;;10.00;99.90;;;;;;4978854;28;20466;-63
2021/10/24 12:20:28;;;;;;;4.40;1.35;;;10.10;99.90;;;;;;4979197;28;20031;-63
2021/10/24 12:23:04;;;;;;;6.28;1.67;;;10.20;99.90;;;;;;4978736;28;20428;-63
2021/10/24 12:25:47;;;;;;;5.97;1.67;;;10.30;99.90;;;;;;4978935;28;20023;-63
2021/10/24 12:28:28;;;;;;;3.53;1.58;;;10.30;99.90;;;;;;4978664;28;20038;-63
2021/10/24 12:31:01;;;;;;;12.63;5.53;;;10.40;99.90;;;;;;4978514;28;20019;-63
2021/10/24 12:33:37;;;;;;;4.35;1.38;;;10.40;99.90;;;;;;4978490;28;20030;-63
2021/10/24 12:36:10;;;;;;;8.07;2.08;;;10.40;99.90;;;;;;4978484;28;20328;-63
2021/10/24 12:38:56;;;;;;;7.00;2.53;;;10.50;99.90;;;;;;4958253;28;20071;-63
2021/10/24 12:41:47;;;;;;;5.38;1.75;;;10.50;99.90;;;;;;4959584;29;20019;-63
2021/10/24 12:44:24;;;;;;;15.73;6.45;;;10.60;99.90;;;;;;4959184;28;20035;-63
2021/10/24 12:46:53;;;;;;;8.23;4.43;;;10.70;99.90;;;;;;4959415;28;20057;-63
2021/10/24 12:49:30;;;;;;;7.88;2.70;;;10.70;99.90;;;;;;4959590;28;20059;-63
2021/10/24 12:52:18;;;;;;;9.70;2.55;;;10.80;99.90;;;;;;4959198;28;20023;-63
2021/10/24 12:54:57;;;;;;;7.15;2.13;;;10.80;99.90;;;;;;4959485;28;20030;-63
2021/10/24 12:57:24;;;;;;;5.68;2.75;;;10.80;99.90;;;;;;4958994;28;20106;-63
2021/10/24 12:59:52;;;;;;;3.58;1.25;;;10.80;99.90;;;;;;4959062;28;20055;-63
2021/10/24 13:02:20;;;;;;;8.43;2.00;;;10.90;99.90;;;;;;4959126;28;20024;-63
2021/10/24 13:04:48;;;;;;;3.28;1.63;;;10.90;99.90;;;;;;4958993;28;20495;-63
2021/10/24 13:07:15;;;;;;;4.43;1.48;;;10.90;99.90;;;;;;4959034;28;20043;-63
2021/10/24 13:09:43;;;;;;;4.45;1.42;;;11.00;99.90;;;;;;4960396;28;20031;-63
2021/10/24 13:12:11;;;;;;;3.38;1.38;;;11.00;99.90;;;;;;4962859;28;20019;-63